Time;durP1;ratioP1;P1;durP2;ratioP2;P2;SDS_P1;SDS_P2;PMS_P1;PMS_P2;Temp;Humidity;BMP_temperature;BMP_pressure;BME280_temperature;BME280_humidity;BME280_pressure;Samples;Min_cycle;Max_cycle;Signal;HPM_P1;HPM_P2
2022/03/06 00:00:13;;;;;;;11.60;8.52;;;7.30;76.40;;;;;;5004022;28;20022;-85
2022/03/06 00:02:40;;;;;;;12.52;8.60;;;7.20;76.40;;;;;;4995414;28;20041;-84
2022/03/06 00:05:07;;;;;;;12.48;8.30;;;7.20;76.40;;;;;;5003651;28;20449;-85
2022/03/06 00:07:33;;;;;;;12.52;8.77;;;7.20;76.40;;;;;;5005087;28;20030;-84
2022/03/06 00:09:58;;;;;;;12.85;8.93;;;7.20;76.40;;;;;;4989765;28;20458;-85
2022/03/06 00:12:24;;;;;;;12.38;8.82;;;7.10;76.40;;;;;;4997348;28;20030;-85
2022/03/06 00:14:50;;;;;;;12.45;8.73;;;7.10;76.40;;;;;;5006660;28;20025;-85
2022/03/06 00:17:16;;;;;;;13.10;9.30;;;7.10;76.40;;;;;;4979128;28;20110;-85
2022/03/06 00:19:43;;;;;;;13.32;9.00;;;7.10;76.50;;;;;;4999405;28;20439;-85
2022/03/06 00:22:08;;;;;;;12.40;8.20;;;7.10;76.50;;;;;;5006673;28;20040;-85
2022/03/06 00:24:34;;;;;;;13.13;8.65;;;7.00;76.40;;;;;;4976420;28;20029;-85
2022/03/06 00:27:01;;;;;;;13.57;8.70;;;7.00;76.40;;;;;;4998340;28;20544;-86
2022/03/06 00:29:29;;;;;;;12.07;8.30;;;7.00;76.40;;;;;;4998713;28;20029;-86
2022/03/06 00:31:55;;;;;;;12.05;8.05;;;7.00;76.40;;;;;;4996809;28;20720;-85
2022/03/06 00:34:20;;;;;;;13.18;9.07;;;7.00;76.40;;;;;;4998753;28;20124;-86
2022/03/06 00:36:46;;;;;;;11.60;8.10;;;6.90;76.30;;;;;;5002753;28;20041;-84
2022/03/06 00:39:12;;;;;;;11.85;8.90;;;6.90;76.30;;;;;;5007054;28;20029;-85
2022/03/06 00:41:39;;;;;;;12.18;8.43;;;6.90;76.40;;;;;;4978779;28;20026;-85
2022/03/06 00:44:04;;;;;;;13.30;8.60;;;6.90;76.40;;;;;;4996303;28;20064;-87
2022/03/06 00:46:30;;;;;;;11.70;8.35;;;6.90;76.40;;;;;;4999993;28;20040;-86
2022/03/06 00:48:56;;;;;;;11.82;8.50;;;6.90;76.40;;;;;;5008208;28;20037;-85
2022/03/06 00:51:22;;;;;;;12.82;8.88;;;6.80;76.30;;;;;;5006026;28;20089;-85
2022/03/06 00:53:48;;;;;;;13.60;9.38;;;6.80;76.40;;;;;;5012149;28;20633;-85
2022/03/06 00:56:14;;;;;;;12.50;8.60;;;6.80;76.40;;;;;;5003473;28;20388;-85
2022/03/06 00:58:39;;;;;;;13.43;8.52;;;6.80;76.40;;;;;;4964290;28;20129;-85
2022/03/06 01:01:06;;;;;;;11.70;7.68;;;6.70;76.30;;;;;;4999221;28;20041;-87
2022/03/06 01:03:32;;;;;;;12.32;8.40;;;6.70;76.30;;;;;;5037330;28;20036;-85
2022/03/06 01:05:58;;;;;;;13.20;8.73;;;6.70;76.30;;;;;;5001989;28;20052;-85
2022/03/06 01:08:24;;;;;;;11.55;8.30;;;6.70;76.30;;;;;;4993387;28;20470;-85
2022/03/06 01:10:51;;;;;;;12.07;8.40;;;6.60;76.30;;;;;;4996328;28;20340;-85
2022/03/06 01:13:19;;;;;;;13.05;8.63;;;6.60;76.30;;;;;;5005138;28;20095;-85
2022/03/06 01:15:45;;;;;;;11.48;8.25;;;6.60;76.30;;;;;;4965019;28;20544;-86
2022/03/06 01:18:11;;;;;;;11.75;8.48;;;6.60;76.30;;;;;;4975725;28;20026;-85
2022/03/06 01:20:39;;;;;;;11.02;7.97;;;6.60;76.30;;;;;;4991240;28;20394;-85
2022/03/06 01:23:06;;;;;;;11.25;8.65;;;6.50;76.30;;;;;;4988433;28;20105;-85
2022/03/06 01:25:33;;;;;;;13.27;9.52;;;6.50;76.30;;;;;;4984052;28;20043;-85
2022/03/06 01:28:00;;;;;;;11.48;8.27;;;6.50;76.30;;;;;;4989115;28;20061;-86
2022/03/06 01:30:26;;;;;;;12.63;8.10;;;6.50;76.30;;;;;;4974985;28;20162;-86
2022/03/06 01:32:52;;;;;;;12.32;8.77;;;6.40;76.20;;;;;;4985806;28;20042;-86
2022/03/06 01:35:19;;;;;;;11.02;7.88;;;6.40;76.20;;;;;;4976825;28;20069;-85
2022/03/06 01:37:45;;;;;;;11.85;8.55;;;6.40;76.20;;;;;;4964405;28;20085;-86
2022/03/06 01:40:12;;;;;;;10.90;7.63;;;6.40;76.20;;;;;;4975986;28;20030;-85
2022/03/06 01:42:40;;;;;;;11.57;8.05;;;6.40;76.20;;;;;;4981519;28;20031;-86
2022/03/06 01:45:11;;;;;;;11.68;8.38;;;6.40;76.20;;;;;;4984542;28;20033;-85
2022/03/06 01:47:45;;;;;;;11.13;7.75;;;6.30;76.20;;;;;;4983147;28;20033;-85
2022/03/06 01:50:20;;;;;;;12.90;8.73;;;6.30;76.20;;;;;;4996565;28;20027;-86
2022/03/06 01:52:48;;;;;;;10.18;8.20;;;6.30;76.20;;;;;;4973764;28;20026;-86
2022/03/06 01:55:17;;;;;;;11.45;8.15;;;6.30;76.20;;;;;;4988379;28;20015;-84
2022/03/06 01:57:44;;;;;;;11.23;7.72;;;6.20;76.10;;;;;;4976677;28;20031;-86
2022/03/06 02:00:15;;;;;;;12.70;8.40;;;6.20;76.20;;;;;;4973446;28;20027;-88
2022/03/06 02:02:41;;;;;;;11.30;7.80;;;6.20;76.20;;;;;;4997365;28;20107;-85
2022/03/06 02:05:08;;;;;;;11.75;8.32;;;6.20;76.20;;;;;;4980138;28;20471;-84
2022/03/06 02:07:34;;;;;;;11.60;7.97;;;6.20;76.20;;;;;;4968888;28;20041;-85
2022/03/06 02:10:01;;;;;;;10.45;7.47;;;6.10;76.10;;;;;;4990525;28;20375;-85
2022/03/06 02:12:27;;;;;;;11.80;8.30;;;6.10;76.10;;;;;;4996523;28;20030;-85
2022/03/06 02:15:01;;;;;;;11.65;8.05;;;6.10;76.20;;;;;;4974251;28;20182;-86
2022/03/06 02:17:27;;;;;;;10.63;7.68;;;6.10;76.20;;;;;;4988015;28;20047;-84
2022/03/06 02:19:59;;;;;;;11.27;8.07;;;6.10;76.20;;;;;;4975388;28;20043;-85
2022/03/06 02:22:36;;;;;;;11.20;8.20;;;6.00;76.20;;;;;;4984228;28;20027;-85
2022/03/06 02:25:13;;;;;;;9.73;7.07;;;6.00;76.20;;;;;;4990100;28;20054;-85
2022/03/06 02:27:39;;;;;;;9.88;7.28;;;6.00;76.10;;;;;;4992499;28;20038;-85
2022/03/06 02:30:12;;;;;;;10.20;7.68;;;6.00;76.10;;;;;;4974081;28;20037;-85
2022/03/06 02:32:39;;;;;;;10.02;7.30;;;6.00;76.20;;;;;;4991176;28;20101;-85
2022/03/06 02:35:07;;;;;;;10.98;7.50;;;6.00;76.20;;;;;;4958451;28;20030;-85
2022/03/06 02:37:33;;;;;;;10.63;8.30;;;5.90;76.10;;;;;;4955501;28;20431;-85
2022/03/06 02:40:01;;;;;;;10.90;7.80;;;5.90;76.20;;;;;;4976051;28;20089;-85
2022/03/06 02:42:30;;;;;;;10.98;7.75;;;5.90;76.20;;;;;;4973784;28;20027;-85
2022/03/06 02:44:58;;;;;;;11.18;8.25;;;5.90;76.20;;;;;;4980122;28;20069;-85
2022/03/06 02:47:25;;;;;;;11.18;7.80;;;5.90;76.20;;;;;;4987519;28;20039;-85
2022/03/06 02:49:51;;;;;;;10.77;7.90;;;5.80;76.10;;;;;;4977949;28;20034;-85
2022/03/06 02:52:17;;;;;;;11.63;8.25;;;5.80;76.10;;;;;;4972051;28;20585;-86
2022/03/06 02:54:43;;;;;;;10.65;7.60;;;5.80;76.10;;;;;;4958410;28;20100;-85
2022/03/06 02:57:09;;;;;;;10.82;7.85;;;5.80;76.10;;;;;;4992400;28;20104;-85
2022/03/06 02:59:36;;;;;;;11.50;7.93;;;5.80;76.10;;;;;;4996256;28;20084;-85
2022/03/06 03:02:02;;;;;;;9.13;7.07;;;5.80;76.10;;;;;;4994714;28;20022;-85
2022/03/06 03:04:28;;;;;;;10.90;7.82;;;5.70;76.00;;;;;;4976619;28;20069;-86
2022/03/06 03:06:53;;;;;;;10.88;8.00;;;5.70;76.10;;;;;;4946817;28;20128;-86
2022/03/06 03:09:20;;;;;;;9.75;7.68;;;5.70;76.10;;;;;;4967474;28;20097;-85
2022/03/06 03:11:47;;;;;;;10.63;8.02;;;5.70;76.10;;;;;;4995590;28;20022;-86
2022/03/06 03:14:14;;;;;;;10.68;7.65;;;5.70;76.10;;;;;;4978176;28;20041;-86
2022/03/06 03:16:41;;;;;;;10.18;7.35;;;5.70;76.10;;;;;;4999550;28;20050;-86
2022/03/06 03:19:06;;;;;;;11.15;8.05;;;5.60;76.10;;;;;;4962103;28;20093;-85
2022/03/06 03:21:32;;;;;;;12.48;8.25;;;5.60;76.00;;;;;;4978984;28;20038;-85
2022/03/06 03:23:58;;;;;;;11.25;8.20;;;5.60;76.10;;;;;;4994109;28;20387;-85
2022/03/06 03:26:24;;;;;;;9.75;7.57;;;5.60;76.00;;;;;;4976427;28;20089;-86
2022/03/06 03:28:50;;;;;;;11.38;8.30;;;5.60;76.10;;;;;;4971980;28;20018;-85
2022/03/06 03:31:16;;;;;;;9.43;7.40;;;5.50;76.00;;;;;;5002694;28;20529;-86
2022/03/06 03:33:42;;;;;;;10.70;7.85;;;5.50;76.00;;;;;;4978730;28;20034;-86
2022/03/06 03:36:09;;;;;;;11.23;8.13;;;5.50;76.10;;;;;;4970297;28;20045;-85
2022/03/06 03:38:35;;;;;;;10.32;7.60;;;5.50;76.00;;;;;;4987059;28;20026;-85
2022/03/06 03:41:01;;;;;;;9.80;7.35;;;5.50;76.10;;;;;;4982893;28;20031;-87
2022/03/06 03:43:28;;;;;;;10.60;7.63;;;5.50;76.10;;;;;;4961367;28;20467;-86
2022/03/06 03:45:57;;;;;;;11.88;8.63;;;5.40;76.00;;;;;;4978832;28;20475;-85
2022/03/06 03:48:24;;;;;;;10.88;8.23;;;5.40;76.60;;;;;;4978364;28;20038;-85
2022/03/06 03:50:52;;;;;;;10.40;7.90;;;5.40;76.00;;;;;;4994991;28;20031;-85
2022/03/06 03:53:18;;;;;;;10.98;7.82;;;5.40;76.00;;;;;;4987959;28;20080;-88
2022/03/06 03:55:44;;;;;;;10.55;7.80;;;5.40;76.00;;;;;;4999790;28;20038;-85
2022/03/06 03:58:10;;;;;;;9.85;7.45;;;5.40;76.00;;;;;;4967521;28;20500;-85
2022/03/06 04:00:36;;;;;;;11.77;8.15;;;5.30;76.00;;;;;;4959950;28;20088;-85
2022/03/06 04:03:02;;;;;;;12.07;8.23;;;5.30;76.00;;;;;;4982860;28;20033;-86
2022/03/06 04:05:28;;;;;;;11.18;8.23;;;5.30;76.00;;;;;;5004866;28;20158;-85
2022/03/06 04:07:53;;;;;;;9.77;7.53;;;5.30;76.00;;;;;;4977206;28;20606;-86
2022/03/06 04:10:20;;;;;;;10.90;8.27;;;5.30;76.00;;;;;;4979697;28;20082;-88
2022/03/06 04:12:45;;;;;;;10.10;7.97;;;5.20;76.00;;;;;;4972817;28;20031;-85
2022/03/06 04:15:11;;;;;;;10.20;7.75;;;5.20;76.00;;;;;;4976879;28;20042;-85
2022/03/06 04:17:37;;;;;;;10.07;7.57;;;5.20;76.00;;;;;;4992508;28;20080;-85
2022/03/06 04:20:04;;;;;;;10.90;7.88;;;5.20;76.00;;;;;;5008324;28;20029;-85
2022/03/06 04:22:30;;;;;;;10.43;7.82;;;5.20;76.00;;;;;;5014378;28;20057;-85
2022/03/06 04:24:55;;;;;;;10.75;7.55;;;5.20;76.00;;;;;;5011983;28;20072;-85
2022/03/06 04:27:21;;;;;;;10.27;7.50;;;5.10;76.00;;;;;;4981372;28;20069;-86
2022/03/06 04:29:47;;;;;;;10.82;7.72;;;5.10;76.60;;;;;;4999131;28;20029;-85
2022/03/06 04:32:13;;;;;;;9.23;7.38;;;5.10;76.00;;;;;;4968050;28;20085;-88
2022/03/06 04:34:39;;;;;;;9.98;7.85;;;5.10;76.00;;;;;;4977574;28;20057;-86
2022/03/06 04:37:05;;;;;;;10.65;8.00;;;5.10;76.00;;;;;;4989336;28;20038;-85
2022/03/06 04:39:31;;;;;;;11.35;8.18;;;5.10;76.00;;;;;;4992030;28;20141;-85
2022/03/06 04:41:56;;;;;;;11.15;8.35;;;5.10;76.00;;;;;;5032186;28;20017;-85
2022/03/06 04:44:23;;;;;;;10.27;8.10;;;5.00;75.90;;;;;;5015505;28;20093;-86
2022/03/06 04:46:49;;;;;;;10.00;7.32;;;5.00;76.00;;;;;;4996281;28;20117;-87
2022/03/06 04:49:15;;;;;;;10.00;7.43;;;5.00;76.00;;;;;;5014418;28;20025;-84
2022/03/06 04:51:41;;;;;;;10.27;7.85;;;5.00;76.00;;;;;;4993442;28;20038;-85
2022/03/06 04:54:08;;;;;;;9.05;7.38;;;5.00;76.00;;;;;;4986212;28;20041;-85
2022/03/06 04:56:34;;;;;;;10.13;7.68;;;5.00;76.00;;;;;;5013701;28;20068;-85
2022/03/06 04:59:00;;;;;;;10.57;7.88;;;4.90;75.90;;;;;;5013055;28;20029;-85
2022/03/06 05:01:26;;;;;;;9.45;7.30;;;5.00;76.00;;;;;;4994008;28;20089;-85
2022/03/06 05:03:52;;;;;;;10.48;7.90;;;4.90;76.00;;;;;;4988629;28;20117;-84
2022/03/06 05:06:18;;;;;;;10.23;7.80;;;4.90;76.00;;;;;;5008140;28;20113;-85
2022/03/06 05:08:44;;;;;;;10.57;8.02;;;4.90;76.00;;;;;;5020553;28;20029;-86
2022/03/06 05:11:10;;;;;;;10.52;7.60;;;4.90;76.00;;;;;;5003286;28;20490;-85
2022/03/06 05:13:36;;;;;;;10.15;7.25;;;4.80;75.90;;;;;;5006838;28;20466;-86
2022/03/06 05:16:03;;;;;;;11.00;8.20;;;4.80;75.90;;;;;;4978906;28;20100;-85
2022/03/06 05:18:29;;;;;;;11.20;8.27;;;4.80;76.00;;;;;;5020245;28;20074;-86
2022/03/06 05:20:55;;;;;;;9.80;7.25;;;4.80;76.00;;;;;;5012074;28;20477;-85
2022/03/06 05:23:21;;;;;;;10.55;7.38;;;4.80;76.00;;;;;;5000008;28;20029;-85
2022/03/06 05:25:47;;;;;;;10.43;8.20;;;4.80;76.00;;;;;;5013454;28;20029;-85
2022/03/06 05:28:13;;;;;;;9.60;7.43;;;4.70;75.90;;;;;;4992236;28;20049;-85
2022/03/06 05:30:39;;;;;;;9.27;7.57;;;4.70;75.90;;;;;;4996639;28;20259;-85
2022/03/06 05:33:05;;;;;;;9.38;7.78;;;4.70;75.90;;;;;;5012184;28;20160;-85
2022/03/06 05:35:31;;;;;;;11.05;8.07;;;4.70;76.00;;;;;;5003799;28;20643;-85
2022/03/06 05:37:57;;;;;;;9.98;7.65;;;4.70;76.00;;;;;;4976520;28;20125;-84
2022/03/06 05:40:22;;;;;;;10.23;7.82;;;4.70;75.90;;;;;;5010133;28;20030;-85
2022/03/06 05:42:49;;;;;;;9.50;7.47;;;4.70;76.00;;;;;;4974982;28;20022;-85
2022/03/06 05:45:14;;;;;;;9.43;7.40;;;4.60;75.90;;;;;;5012914;28;20032;-86
2022/03/06 05:47:40;;;;;;;8.77;7.00;;;4.60;75.90;;;;;;4982194;28;20104;-85
2022/03/06 05:50:07;;;;;;;10.50;7.57;;;4.60;76.00;;;;;;4999321;28;20378;-85
2022/03/06 05:52:33;;;;;;;9.05;7.15;;;4.60;76.00;;;;;;4998965;28;20016;-85
2022/03/06 05:54:59;;;;;;;9.10;7.35;;;4.60;76.00;;;;;;5015793;28;20120;-83
2022/03/06 05:57:25;;;;;;;10.18;7.90;;;4.60;76.00;;;;;;4997699;28;20124;-85
2022/03/06 05:59:52;;;;;;;10.25;7.38;;;4.60;76.00;;;;;;4989942;28;20451;-85
2022/03/06 06:02:19;;;;;;;10.05;7.57;;;4.50;76.00;;;;;;4982070;28;20040;-86
2022/03/06 06:04:45;;;;;;;9.18;7.43;;;4.50;75.90;;;;;;4982649;28;20038;-86
2022/03/06 06:07:11;;;;;;;9.82;7.68;;;4.50;76.00;;;;;;4982453;28;20485;-85
2022/03/06 06:09:37;;;;;;;10.73;7.80;;;4.50;76.00;;;;;;4999794;28;20037;-85
2022/03/06 06:12:04;;;;;;;10.82;7.75;;;4.50;76.00;;;;;;4982793;28;20091;-86
2022/03/06 06:14:29;;;;;;;10.25;7.47;;;4.50;76.00;;;;;;5005536;28;20039;-85
2022/03/06 06:16:55;;;;;;;9.32;6.97;;;4.40;75.90;;;;;;5019898;28;20131;-85
2022/03/06 06:19:21;;;;;;;9.88;7.70;;;4.50;76.00;;;;;;4999868;28;20080;-86
2022/03/06 06:21:47;;;;;;;10.68;7.95;;;4.40;76.00;;;;;;4998052;28;20025;-85
2022/03/06 06:24:15;;;;;;;9.75;7.07;;;4.40;76.00;;;;;;4997629;28;20064;-86
2022/03/06 06:26:42;;;;;;;9.85;7.43;;;4.40;76.00;;;;;;4995234;28;20545;-85
2022/03/06 06:29:08;;;;;;;10.40;8.27;;;4.40;76.70;;;;;;4978980;28;20116;-84
2022/03/06 06:31:34;;;;;;;10.63;7.80;;;4.40;76.00;;;;;;5016930;28;20034;-85
2022/03/06 06:34:00;;;;;;;9.15;6.93;;;4.30;76.00;;;;;;5002219;28;20109;-85
2022/03/06 06:36:26;;;;;;;9.27;7.55;;;4.40;76.10;;;;;;5009895;28;20060;-85
2022/03/06 06:38:53;;;;;;;9.50;7.53;;;4.40;76.00;;;;;;4986632;28;20041;-85
2022/03/06 06:41:19;;;;;;;9.30;7.35;;;4.30;75.90;;;;;;5017772;28;20056;-84
2022/03/06 06:43:45;;;;;;;9.52;7.70;;;4.30;75.90;;;;;;5019420;28;20065;-86
2022/03/06 06:46:11;;;;;;;9.05;7.53;;;4.30;76.00;;;;;;4986750;28;20042;-85
2022/03/06 06:48:37;;;;;;;9.55;7.45;;;4.30;76.00;;;;;;4993121;28;20037;-84
2022/03/06 06:51:04;;;;;;;9.32;7.38;;;4.30;76.00;;;;;;4990950;28;20029;-85
2022/03/06 06:53:30;;;;;;;10.65;7.88;;;4.30;76.00;;;;;;5007208;28;20028;-86
2022/03/06 06:55:55;;;;;;;9.65;7.90;;;4.30;76.00;;;;;;4994097;28;20040;-85
2022/03/06 06:58:21;;;;;;;9.48;7.28;;;4.30;76.00;;;;;;4997677;28;20034;-86
2022/03/06 07:00:48;;;;;;;11.27;8.18;;;4.20;76.00;;;;;;5007084;28;20064;-85
2022/03/06 07:03:15;;;;;;;11.00;7.93;;;4.20;76.00;;;;;;4998046;28;20056;-87
2022/03/06 07:05:42;;;;;;;9.57;7.63;;;4.20;76.00;;;;;;5001173;28;20044;-81
2022/03/06 07:08:08;;;;;;;10.52;7.75;;;4.20;76.00;;;;;;5023461;28;20072;-82
2022/03/06 07:10:34;;;;;;;10.27;7.93;;;4.20;76.00;;;;;;5005244;28;20041;-84
2022/03/06 07:13:00;;;;;;;10.05;7.60;;;4.20;76.00;;;;;;4984479;28;20479;-84
2022/03/06 07:15:28;;;;;;;10.25;8.20;;;4.20;76.00;;;;;;4998922;28;20030;-84
2022/03/06 07:17:59;;;;;;;9.50;7.50;;;4.20;76.00;;;;;;5014837;28;20539;-84
2022/03/06 07:20:26;;;;;;;10.60;7.60;;;4.20;76.00;;;;;;5001735;28;20088;-85
2022/03/06 07:22:53;;;;;;;10.57;7.93;;;4.20;76.00;;;;;;4998536;28;20048;-84
2022/03/06 07:25:21;;;;;;;10.23;7.53;;;4.20;76.10;;;;;;5000902;28;20033;-84
2022/03/06 07:27:47;;;;;;;10.57;7.90;;;4.20;76.10;;;;;;5004105;28;20029;-84
2022/03/06 07:30:13;;;;;;;10.80;8.27;;;4.10;76.10;;;;;;5017672;28;20045;-84
2022/03/06 07:32:47;;;;;;;9.77;7.15;;;4.10;76.10;;;;;;4985308;28;20041;-85
2022/03/06 07:35:14;;;;;;;9.73;7.80;;;4.10;76.10;;;;;;5016666;28;20038;-84
2022/03/06 07:37:41;;;;;;;10.30;7.93;;;4.10;76.10;;;;;;4990452;28;20020;-85
2022/03/06 07:40:08;;;;;;;10.25;7.88;;;4.10;76.00;;;;;;5017102;28;20086;-84
2022/03/06 07:42:33;;;;;;;10.60;8.27;;;4.10;76.10;;;;;;5001575;28;20029;-85
2022/03/06 07:45:00;;;;;;;11.68;8.20;;;4.10;76.10;;;;;;4960999;28;20060;-84
2022/03/06 07:47:25;;;;;;;10.10;8.65;;;4.10;76.10;;;;;;4998961;28;20033;-84
2022/03/06 07:49:51;;;;;;;11.32;8.13;;;4.10;76.20;;;;;;4981286;28;20030;-84
2022/03/06 07:52:17;;;;;;;9.68;7.35;;;4.10;76.10;;;;;;5001039;28;20029;-85
2022/03/06 07:54:43;;;;;;;9.15;7.00;;;4.10;76.20;;;;;;5000562;28;20124;-85
2022/03/06 07:57:08;;;;;;;9.32;7.47;;;4.10;76.20;;;;;;5000333;28;20466;-86
2022/03/06 07:59:37;;;;;;;8.60;6.97;;;4.10;76.20;;;;;;5000261;28;20029;-86
2022/03/06 08:02:03;;;;;;;10.18;7.82;;;4.10;76.20;;;;;;5015700;28;20101;-84
2022/03/06 08:04:29;;;;;;;9.25;7.45;;;4.10;76.20;;;;;;5007269;28;20037;-84
2022/03/06 08:06:55;;;;;;;9.15;7.50;;;4.10;76.20;;;;;;5012121;28;20029;-85
2022/03/06 08:09:21;;;;;;;9.38;7.40;;;4.10;76.30;;;;;;4986339;28;20030;-86
2022/03/06 08:11:47;;;;;;;9.38;7.25;;;4.10;76.20;;;;;;5000571;28;20040;-85
2022/03/06 08:14:13;;;;;;;9.43;7.05;;;4.10;76.20;;;;;;5003125;28;20037;-87
2022/03/06 08:16:38;;;;;;;9.60;7.90;;;4.10;76.30;;;;;;4983641;28;20073;-86
2022/03/06 08:19:05;;;;;;;9.98;7.28;;;4.10;76.30;;;;;;4974576;28;20189;-86
2022/03/06 08:21:31;;;;;;;9.32;7.43;;;4.10;76.30;;;;;;5036638;28;20037;-85
2022/03/06 08:23:57;;;;;;;9.55;7.22;;;4.10;76.30;;;;;;5018525;28;20107;-83
2022/03/06 08:26:25;;;;;;;9.25;7.47;;;4.10;76.30;;;;;;5001112;28;20038;-80
2022/03/06 08:28:51;;;;;;;9.10;7.03;;;4.10;76.30;;;;;;4981550;28;20030;-86
2022/03/06 08:31:17;;;;;;;8.23;6.55;;;4.10;76.30;;;;;;4970508;28;20037;-88
2022/03/06 08:33:44;;;;;;;8.20;6.80;;;4.10;76.30;;;;;;4996955;28;20029;-82
2022/03/06 08:36:09;;;;;;;8.88;7.00;;;4.10;76.40;;;;;;4982880;28;20052;-84
2022/03/06 08:38:35;;;;;;;9.07;7.25;;;4.20;76.40;;;;;;5006033;28;20025;-84
2022/03/06 08:41:01;;;;;;;9.63;7.25;;;4.10;76.40;;;;;;4981909;28;20493;-84
2022/03/06 08:43:27;;;;;;;8.05;6.90;;;4.20;76.50;;;;;;4999479;28;20030;-85
2022/03/06 08:45:52;;;;;;;8.50;6.85;;;4.10;76.40;;;;;;5016067;28;20021;-83
2022/03/06 08:48:18;;;;;;;10.02;7.18;;;4.20;76.50;;;;;;4996823;28;20418;-83
2022/03/06 08:50:44;;;;;;;8.05;6.95;;;4.20;76.50;;;;;;4987974;28;20548;-84
2022/03/06 08:53:10;;;;;;;8.45;6.65;;;4.20;76.40;;;;;;4982828;28;20646;-83
2022/03/06 08:55:36;;;;;;;8.95;7.00;;;4.20;76.50;;;;;;5027705;28;20033;-83
2022/03/06 08:58:01;;;;;;;7.57;6.63;;;4.20;76.50;;;;;;5011965;28;20060;-82
2022/03/06 09:00:27;;;;;;;8.73;6.38;;;4.20;76.50;;;;;;5029578;28;20540;-84
2022/03/06 09:02:53;;;;;;;7.75;5.95;;;4.20;76.40;;;;;;5011788;28;20029;-84
2022/03/06 09:05:20;;;;;;;8.77;7.07;;;4.20;76.50;;;;;;4995966;28;20386;-85
2022/03/06 09:07:46;;;;;;;8.48;6.60;;;4.30;76.50;;;;;;4999079;28;20059;-80
2022/03/06 09:10:13;;;;;;;7.82;6.80;;;4.30;77.20;;;;;;4982640;28;20024;-79
2022/03/06 09:12:39;;;;;;;8.05;6.45;;;4.30;76.50;;;;;;5013120;28;20455;-84
2022/03/06 09:15:06;;;;;;;8.57;6.47;;;4.30;76.50;;;;;;4998587;28;20044;-83
2022/03/06 09:17:32;;;;;;;7.75;6.13;;;4.30;76.50;;;;;;4999665;28;20045;-82
2022/03/06 09:19:58;;;;;;;7.78;5.88;;;4.40;76.60;;;;;;4998725;28;20026;-84
2022/03/06 09:22:24;;;;;;;6.75;5.55;;;4.40;76.70;;;;;;5007419;28;20036;-83
2022/03/06 09:24:49;;;;;;;7.90;6.05;;;4.40;76.50;;;;;;5007986;28;20067;-85
2022/03/06 09:27:15;;;;;;;7.53;5.80;;;4.50;76.60;;;;;;5014826;28;20038;-84
2022/03/06 09:29:41;;;;;;;7.57;6.20;;;4.50;76.50;;;;;;4996341;28;20026;-85
2022/03/06 09:32:10;;;;;;;8.52;6.68;;;4.50;76.50;;;;;;4999795;28;20494;-86
2022/03/06 09:34:36;;;;;;;7.65;6.20;;;4.60;76.60;;;;;;4983811;28;20153;-83
2022/03/06 09:37:02;;;;;;;8.60;6.03;;;4.60;76.50;;;;;;4999127;28;20049;-83
2022/03/06 09:39:27;;;;;;;7.40;5.88;;;4.70;76.40;;;;;;4991398;28;20034;-83
2022/03/06 09:41:55;;;;;;;8.30;5.70;;;4.70;76.20;;;;;;4983222;28;20048;-84
2022/03/06 09:44:24;;;;;;;8.55;5.65;;;4.80;76.10;;;;;;5013929;28;20470;-83
2022/03/06 09:46:52;;;;;;;6.82;5.65;;;4.80;76.00;;;;;;4996272;28;20060;-83
2022/03/06 09:49:18;;;;;;;7.38;5.43;;;4.80;75.80;;;;;;4999364;28;20029;-79
2022/03/06 09:51:45;;;;;;;6.82;5.07;;;4.90;75.80;;;;;;4997464;28;20079;-79
2022/03/06 09:54:12;;;;;;;8.25;6.05;;;5.00;75.70;;;;;;5011411;28;20017;-79
2022/03/06 09:56:42;;;;;;;8.52;5.40;;;5.10;75.60;;;;;;4997802;28;20037;-79
2022/03/06 09:59:09;;;;;;;7.00;5.20;;;5.10;75.40;;;;;;5041998;28;20018;-84
2022/03/06 10:01:35;;;;;;;6.55;5.43;;;5.20;75.40;;;;;;5006712;28;20029;-81
2022/03/06 10:04:25;;;;;;;6.43;4.80;;;5.20;75.30;;;;;;4997717;28;20025;-82
2022/03/06 10:06:57;;;;;;;6.50;5.13;;;5.30;75.50;;;;;;4994537;28;20057;-79
2022/03/06 10:09:23;;;;;;;6.15;4.70;;;5.30;75.30;;;;;;5011730;28;20025;-80
2022/03/06 10:11:51;;;;;;;7.07;5.53;;;5.40;75.80;;;;;;4978169;28;20370;-79
2022/03/06 10:14:41;;;;;;;6.07;5.22;;;5.40;74.90;;;;;;5008067;28;20037;-79
2022/03/06 10:17:12;;;;;;;6.90;5.15;;;5.50;74.90;;;;;;5028694;28;20053;-77
2022/03/06 10:19:53;;;;;;;7.57;4.97;;;5.60;74.80;;;;;;5016718;28;20064;-78
2022/03/06 10:22:20;;;;;;;6.82;5.13;;;5.60;74.70;;;;;;4994070;28;20092;-79
2022/03/06 10:24:51;;;;;;;6.57;5.30;;;5.70;74.70;;;;;;5003680;28;20072;-79
2022/03/06 10:27:49;;;;;;;7.53;5.28;;;5.80;74.80;;;;;;4996971;28;20063;-82
2022/03/06 10:30:38;;;;;;;6.72;5.18;;;5.90;75.00;;;;;;5024415;28;20029;-82
2022/03/06 10:33:18;;;;;;;6.93;4.93;;;5.90;74.80;;;;;;4984577;28;20785;-78
2022/03/06 10:35:46;;;;;;;6.70;5.20;;;6.00;74.90;;;;;;5000948;28;20037;-78
2022/03/06 10:38:35;;;;;;;6.43;4.93;;;6.10;74.90;;;;;;5013482;28;20595;-77
2022/03/06 10:41:02;;;;;;;6.25;5.07;;;6.20;75.10;;;;;;5022252;28;20101;-78
2022/03/06 10:43:32;;;;;;;6.63;5.43;;;6.20;75.00;;;;;;5011355;28;20029;-78
2022/03/06 10:46:13;;;;;;;6.07;5.05;;;6.30;75.10;;;;;;5002981;28;20060;-79
2022/03/06 10:48:40;;;;;;;6.05;4.85;;;6.40;75.20;;;;;;5009249;28;20029;-80
2022/03/06 10:51:08;;;;;;;7.20;4.85;;;6.40;75.10;;;;;;5021031;28;20344;-80
2022/03/06 10:53:35;;;;;;;6.75;5.10;;;6.50;75.10;;;;;;5031477;28;20067;-80
2022/03/06 10:56:13;;;;;;;7.07;5.32;;;6.60;75.10;;;;;;5016693;28;20025;-80
2022/03/06 10:58:42;;;;;;;6.43;5.15;;;6.70;75.20;;;;;;5008338;28;20068;-79
2022/03/06 11:01:08;;;;;;;6.95;5.10;;;6.80;75.20;;;;;;5013878;28;20030;-78
2022/03/06 11:03:35;;;;;;;6.88;5.47;;;6.90;75.30;;;;;;5007117;28;20605;-78
2022/03/06 11:06:03;;;;;;;7.45;5.80;;;6.90;75.30;;;;;;5012474;28;20040;-80
2022/03/06 11:08:29;;;;;;;6.68;5.55;;;7.00;75.30;;;;;;4997668;28;20505;-79
2022/03/06 11:10:55;;;;;;;6.88;5.32;;;7.10;75.20;;;;;;4997093;28;20022;-80
2022/03/06 11:13:22;;;;;;;6.32;5.22;;;7.20;75.30;;;;;;4997643;28;20033;-80
2022/03/06 11:15:49;;;;;;;6.72;5.05;;;7.20;75.30;;;;;;5013899;28;20033;-80
2022/03/06 11:18:15;;;;;;;6.35;5.10;;;7.30;75.20;;;;;;4998889;28;20065;-79
2022/03/06 11:20:44;;;;;;;6.03;4.82;;;7.40;75.20;;;;;;4997779;28;20478;-80
2022/03/06 11:23:27;;;;;;;6.97;5.43;;;7.50;75.20;;;;;;4999145;28;20030;-80
2022/03/06 11:26:12;;;;;;;6.45;5.07;;;7.50;75.20;;;;;;5000989;28;20033;-80
2022/03/06 11:28:56;;;;;;;6.30;4.83;;;7.60;75.20;;;;;;5016887;28;20029;-82
2022/03/06 11:31:22;;;;;;;6.70;5.25;;;7.70;75.20;;;;;;5000541;28;20029;-80
2022/03/06 11:34:03;;;;;;;6.95;4.97;;;7.70;75.10;;;;;;5016807;28;20093;-82
2022/03/06 11:36:30;;;;;;;6.45;4.97;;;7.80;75.30;;;;;;5017845;28;20118;-81
2022/03/06 11:38:56;;;;;;;6.88;5.10;;;7.80;75.20;;;;;;4984362;28;20022;-81
2022/03/06 11:41:26;;;;;;;6.28;4.68;;;7.90;75.30;;;;;;4996993;28;20532;-80
2022/03/06 11:43:54;;;;;;;6.60;5.35;;;8.00;75.30;;;;;;5013282;28;20489;-79
2022/03/06 11:46:26;;;;;;;6.43;5.25;;;8.00;75.30;;;;;;5017217;28;20040;-80
2022/03/06 11:48:52;;;;;;;7.57;5.60;;;8.10;75.40;;;;;;5016931;28;20095;-80
2022/03/06 11:51:23;;;;;;;7.30;5.45;;;8.10;75.40;;;;;;5017096;28;20030;-81
2022/03/06 11:53:50;;;;;;;7.10;5.60;;;8.10;75.40;;;;;;5000478;28;20033;-80
2022/03/06 11:56:34;;;;;;;6.75;5.47;;;8.20;75.40;;;;;;5011079;28;20037;-80
2022/03/06 11:59:00;;;;;;;6.80;5.18;;;8.30;75.50;;;;;;5019767;28;20047;-80
2022/03/06 12:01:35;;;;;;;6.40;5.05;;;8.30;75.40;;;;;;5037790;28;20025;-79
2022/03/06 12:04:15;;;;;;;6.47;5.18;;;8.40;75.40;;;;;;5018318;28;20160;-80
2022/03/06 12:06:42;;;;;;;6.72;5.47;;;8.40;75.30;;;;;;4999359;28;20037;-82
2022/03/06 12:09:18;;;;;;;7.50;5.82;;;8.40;75.10;;;;;;5000313;28;20021;-80
2022/03/06 12:11:45;;;;;;;6.53;5.45;;;8.50;75.30;;;;;;5009101;28;20028;-80
2022/03/06 12:14:27;;;;;;;6.57;5.18;;;8.50;75.30;;;;;;4999008;28;20136;-80
2022/03/06 12:17:07;;;;;;;6.85;5.55;;;8.50;75.30;;;;;;4999410;28;20022;-81
2022/03/06 12:19:43;;;;;;;7.07;5.30;;;8.60;75.40;;;;;;5000054;28;20033;-80
2022/03/06 12:22:21;;;;;;;7.18;5.45;;;8.60;75.40;;;;;;5016346;28;20033;-79
2022/03/06 12:24:50;;;;;;;6.28;5.20;;;8.70;75.60;;;;;;5001382;28;20385;-80
2022/03/06 12:27:24;;;;;;;7.55;5.95;;;8.80;75.70;;;;;;5014853;28;20520;-80
2022/03/06 12:29:52;;;;;;;6.72;4.95;;;8.80;75.80;;;;;;4999530;28;20029;-80
2022/03/06 12:32:24;;;;;;;7.35;5.70;;;8.90;75.70;;;;;;5019473;28;20017;-82
2022/03/06 12:34:59;;;;;;;7.70;5.28;;;8.90;75.80;;;;;;5017414;28;20496;-81
2022/03/06 12:37:37;;;;;;;6.53;5.03;;;9.00;75.60;;;;;;5017478;28;20030;-79
2022/03/06 12:40:12;;;;;;;6.22;4.97;;;9.00;75.60;;;;;;5019639;28;20118;-79
2022/03/06 12:42:39;;;;;;;7.07;5.65;;;9.00;75.60;;;;;;5015964;28;20037;-80
2022/03/06 12:45:19;;;;;;;6.65;5.28;;;9.10;75.60;;;;;;5014593;28;20504;-76
2022/03/06 12:47:47;;;;;;;6.50;5.18;;;9.10;75.60;;;;;;5013020;28;20099;-82
2022/03/06 12:50:16;;;;;;;6.40;5.22;;;9.20;75.60;;;;;;4985085;28;20021;-80
2022/03/06 12:52:43;;;;;;;7.10;5.25;;;9.20;75.50;;;;;;4993808;28;20026;-80
2022/03/06 12:55:20;;;;;;;7.47;5.93;;;9.30;75.60;;;;;;5004302;28;20022;-82